Time;durP1;ratioP1;P1;durP2;ratioP2;P2;SDS_P1;SDS_P2;PMS_P1;PMS_P2;Temp;Humidity;BMP_temperature;BMP_pressure;BME280_temperature;BME280_humidity;BME280_pressure;Samples;Min_cycle;Max_cycle;Signal;HPM_P1;HPM_P2
2023/01/06 00:01:33;;;;;;;36.88;11.32;;;10.00;99.90;;;;;;5052478;28;20045;-82
2023/01/06 00:03:58;;;;;;;32.95;10.20;;;10.00;99.90;;;;;;5053295;28;20077;-83
2023/01/06 00:06:26;;;;;;;26.80;10.15;;;10.00;99.90;;;;;;5054356;28;20163;-81
2023/01/06 00:09:01;;;;;;;28.60;9.27;;;10.00;99.90;;;;;;5042173;28;20076;-83
2023/01/06 00:11:27;;;;;;;30.02;9.60;;;10.10;99.90;;;;;;5034931;28;20081;-83
2023/01/06 00:13:54;;;;;;;33.15;9.35;;;10.10;99.90;;;;;;5043986;28;20033;-82
2023/01/06 00:16:20;;;;;;;33.35;8.43;;;10.10;99.90;;;;;;5054409;28;20041;-83
2023/01/06 00:18:46;;;;;;;34.05;8.50;;;10.10;99.90;;;;;;5052659;28;20073;-82
2023/01/06 00:21:13;;;;;;;24.23;7.82;;;10.10;99.90;;;;;;5054037;28;20033;-83
2023/01/06 00:23:39;;;;;;;27.17;8.75;;;10.10;99.90;;;;;;5055117;28;20129;-82
2023/01/06 00:26:07;;;;;;;27.55;8.70;;;10.10;99.90;;;;;;5055326;28;20065;-83
2023/01/06 00:28:33;;;;;;;22.08;8.25;;;10.10;99.90;;;;;;5050505;28;20083;-81
2023/01/06 00:31:03;;;;;;;26.70;9.63;;;10.10;99.90;;;;;;5055473;28;20060;-83
2023/01/06 00:33:29;;;;;;;31.00;9.07;;;10.20;99.90;;;;;;5038851;28;20037;-82
2023/01/06 00:35:58;;;;;;;24.05;8.35;;;10.20;99.90;;;;;;5037827;28;20128;-83
2023/01/06 00:38:23;;;;;;;29.70;10.02;;;10.10;99.90;;;;;;5055542;28;20045;-82
2023/01/06 00:40:49;;;;;;;27.17;9.85;;;10.20;99.90;;;;;;5054117;28;20040;-82
2023/01/06 00:43:14;;;;;;;26.73;9.30;;;10.20;99.90;;;;;;5053861;28;20037;-83
2023/01/06 00:45:40;;;;;;;40.42;8.88;;;10.20;99.90;;;;;;5053644;28;20052;-82
2023/01/06 00:48:05;;;;;;;22.80;8.95;;;10.20;99.90;;;;;;5053806;28;20041;-83
2023/01/06 00:50:31;;;;;;;25.50;8.70;;;10.20;99.90;;;;;;5055088;28;20578;-80
2023/01/06 00:52:56;;;;;;;32.88;9.45;;;10.20;99.90;;;;;;5054416;28;20116;-82
2023/01/06 00:55:22;;;;;;;29.88;10.65;;;10.20;99.90;;;;;;5054611;28;20056;-81
2023/01/06 00:57:51;;;;;;;25.50;9.30;;;10.20;99.90;;;;;;5053451;28;20048;-82
2023/01/06 01:00:17;;;;;;;24.35;9.32;;;10.20;99.90;;;;;;5053754;28;20052;-82
2023/01/06 01:02:42;;;;;;;22.25;9.02;;;10.20;99.90;;;;;;5053845;28;20045;-83
2023/01/06 01:05:08;;;;;;;25.58;8.65;;;10.20;99.90;;;;;;5053683;28;20124;-81
2023/01/06 01:07:34;;;;;;;26.17;8.77;;;10.20;99.90;;;;;;5035757;28;20491;-82
2023/01/06 01:09:59;;;;;;;19.98;8.10;;;10.20;99.90;;;;;;5041549;28;20502;-82
2023/01/06 01:12:25;;;;;;;23.98;7.65;;;10.20;99.90;;;;;;5053691;28;20403;-82
2023/01/06 01:14:52;;;;;;;28.10;7.53;;;10.20;99.90;;;;;;5053028;28;20040;-82
2023/01/06 01:17:23;;;;;;;20.80;6.78;;;10.20;99.90;;;;;;5038138;28;20091;-84
2023/01/06 01:19:50;;;;;;;17.75;5.78;;;10.30;99.90;;;;;;5047174;28;20116;-83
2023/01/06 01:22:16;;;;;;;12.35;5.28;;;10.30;99.90;;;;;;5048647;28;20119;-82
2023/01/06 01:24:42;;;;;;;15.52;5.43;;;10.30;99.90;;;;;;5048476;28;20029;-83
2023/01/06 01:27:08;;;;;;;14.40;4.50;;;10.30;99.90;;;;;;5053429;28;20041;-83
2023/01/06 01:29:34;;;;;;;13.93;3.95;;;10.30;99.90;;;;;;5035326;28;20043;-83
2023/01/06 01:32:00;;;;;;;12.15;4.18;;;10.30;99.90;;;;;;5044635;28;20415;-83
2023/01/06 01:34:25;;;;;;;12.45;4.55;;;10.30;99.90;;;;;;5052034;28;20033;-82
2023/01/06 01:36:52;;;;;;;11.60;4.00;;;10.30;99.90;;;;;;5045133;28;20044;-82
2023/01/06 01:39:21;;;;;;;13.20;4.20;;;10.30;99.90;;;;;;5032468;28;20049;-83
2023/01/06 01:41:47;;;;;;;12.50;4.70;;;10.20;99.90;;;;;;5035978;28;20062;-83
2023/01/06 01:44:50;;;;;;;13.77;4.68;;;10.20;99.90;;;;;;5054186;28;20068;-82
2023/01/06 01:47:21;;;;;;;12.80;4.68;;;10.30;99.90;;;;;;5052720;28;20194;-80
2023/01/06 01:49:49;;;;;;;13.55;4.70;;;10.20;99.90;;;;;;5034149;28;20495;-83
2023/01/06 01:52:17;;;;;;;11.25;4.93;;;10.20;99.90;;;;;;5027089;28;20047;-83
2023/01/06 01:54:43;;;;;;;9.48;4.75;;;10.20;99.90;;;;;;5051788;28;20693;-82
2023/01/06 01:57:14;;;;;;;11.00;4.93;;;10.20;99.90;;;;;;5051663;28;20032;-82
2023/01/06 01:59:40;;;;;;;14.20;5.40;;;10.20;99.90;;;;;;5053849;28;20068;-83
2023/01/06 02:02:06;;;;;;;14.23;5.50;;;10.20;99.90;;;;;;5053591;28;20205;-82
2023/01/06 02:04:35;;;;;;;11.30;5.55;;;10.20;99.90;;;;;;5052052;28;20049;-83
2023/01/06 02:07:03;;;;;;;14.40;5.75;;;10.20;99.90;;;;;;5052503;28;20095;-83
2023/01/06 02:09:36;;;;;;;13.60;5.35;;;10.20;99.90;;;;;;5052867;28;20567;-82
2023/01/06 02:12:03;;;;;;;13.35;5.55;;;10.20;99.90;;;;;;5035760;28;20124;-82
2023/01/06 02:14:28;;;;;;;13.30;5.80;;;10.20;99.90;;;;;;5038631;28;20056;-81
2023/01/06 02:17:07;;;;;;;11.27;5.95;;;10.20;99.90;;;;;;5049937;28;20040;-83
2023/01/06 02:20:05;;;;;;;13.45;5.88;;;10.20;99.90;;;;;;5056786;28;20128;-82
2023/01/06 02:23:04;;;;;;;13.10;5.65;;;10.20;99.90;;;;;;5058034;28;20044;-82
2023/01/06 02:25:48;;;;;;;9.98;5.65;;;10.20;99.90;;;;;;5057320;28;20044;-83
2023/01/06 02:29:00;;;;;;;17.00;7.10;;;10.20;99.90;;;;;;5049188;28;20122;-83
2023/01/06 02:32:10;;;;;;;9.82;5.28;;;10.20;99.90;;;;;;5041151;28;20071;-82
2023/01/06 02:34:53;;;;;;;10.85;5.50;;;10.20;99.90;;;;;;5032888;28;20063;-82
2023/01/06 02:37:43;;;;;;;8.55;5.40;;;10.20;99.90;;;;;;5056898;28;20131;-82
2023/01/06 02:40:45;;;;;;;12.27;4.97;;;10.20;99.90;;;;;;5035184;28;20044;-82
2023/01/06 02:43:23;;;;;;;13.43;5.47;;;10.20;99.90;;;;;;5018474;28;20041;-82
2023/01/06 02:45:48;;;;;;;10.82;5.32;;;10.20;99.90;;;;;;5051020;28;20057;-82
2023/01/06 02:48:22;;;;;;;14.40;5.97;;;10.20;99.90;;;;;;5056733;28;20071;-84
2023/01/06 02:51:04;;;;;;;10.88;5.15;;;10.20;99.90;;;;;;5044539;28;20041;-82
2023/01/06 02:53:42;;;;;;;10.77;5.20;;;10.20;99.90;;;;;;5070282;28;20037;-83
2023/01/06 02:56:08;;;;;;;11.43;5.03;;;10.20;99.90;;;;;;5036608;28;20083;-82
2023/01/06 02:58:45;;;;;;;10.98;5.35;;;10.10;99.90;;;;;;5054950;28;20037;-82
2023/01/06 03:01:20;;;;;;;9.95;4.70;;;10.10;99.90;;;;;;5047527;28;20063;-84
2023/01/06 03:03:47;;;;;;;8.85;4.75;;;10.10;99.90;;;;;;5052370;28;20094;-84
2023/01/06 03:06:17;;;;;;;8.48;4.47;;;10.10;99.90;;;;;;5051845;28;20097;-83
2023/01/06 03:08:45;;;;;;;10.73;4.50;;;10.00;99.90;;;;;;5052037;28;20032;-84
2023/01/06 03:11:11;;;;;;;12.98;4.82;;;10.10;99.90;;;;;;5046549;28;20464;-83
2023/01/06 03:14:05;;;;;;;12.65;4.75;;;10.10;99.90;;;;;;5043617;28;20098;-83
2023/01/06 03:16:30;;;;;;;9.93;4.00;;;10.10;99.90;;;;;;5048953;28;20033;-82
2023/01/06 03:18:56;;;;;;;8.40;4.65;;;10.10;99.90;;;;;;5045861;28;20040;-83
2023/01/06 03:21:28;;;;;;;9.23;4.18;;;10.10;99.90;;;;;;5044408;28;20033;-83
2023/01/06 03:23:53;;;;;;;10.20;4.43;;;10.10;99.90;;;;;;5053373;28;20041;-83
2023/01/06 03:26:19;;;;;;;9.13;4.20;;;10.10;99.90;;;;;;5053192;28;20091;-83
2023/01/06 03:28:45;;;;;;;8.60;4.20;;;10.10;99.90;;;;;;5049337;28;20115;-83
2023/01/06 03:31:26;;;;;;;10.43;3.88;;;10.10;99.90;;;;;;5051296;28;20033;-84
2023/01/06 03:34:36;;;;;;;9.38;4.32;;;10.00;99.90;;;;;;5043746;28;20037;-83
2023/01/06 03:37:37;;;;;;;11.40;4.55;;;10.00;99.90;;;;;;5034796;28;20084;-83
2023/01/06 03:40:17;;;;;;;7.88;4.03;;;10.00;99.90;;;;;;5041751;28;20097;-83
2023/01/06 03:45:49;;;;;;;10.80;4.82;;;10.00;99.90;;;;;;5047110;28;20072;-83
2023/01/06 03:48:44;;;;;;;9.65;4.70;;;10.00;99.90;;;;;;5037916;28;20029;-82
2023/01/06 03:51:30;;;;;;;6.47;4.93;;;10.00;99.90;;;;;;5053143;28;20040;-83
2023/01/06 03:54:12;;;;;;;11.48;5.40;;;10.00;99.90;;;;;;5024488;28;20126;-84
2023/01/06 03:56:40;;;;;;;7.32;5.10;;;10.00;99.90;;;;;;5042863;28;20086;-83
2023/01/06 03:59:13;;;;;;;10.73;5.70;;;10.00;99.90;;;;;;5044893;28;20183;-83
2023/01/06 04:01:42;;;;;;;10.38;6.20;;;10.00;99.90;;;;;;5039616;28;20120;-83
2023/01/06 04:04:08;;;;;;;11.38;6.50;;;10.10;99.90;;;;;;5036695;28;20552;-83
2023/01/06 04:06:33;;;;;;;12.43;7.05;;;10.10;99.90;;;;;;5051952;28;20071;-84
2023/01/06 04:08:59;;;;;;;10.48;7.28;;;10.10;99.90;;;;;;5031986;28;20087;-83
2023/01/06 04:14:09;;;;;;;10.23;6.82;;;10.10;99.90;;;;;;5046896;28;20045;-84
2023/01/06 04:16:34;;;;;;;10.98;7.20;;;10.10;99.90;;;;;;5039236;28;20041;-83
2023/01/06 04:19:00;;;;;;;9.38;6.95;;;10.10;99.90;;;;;;5048154;28;20383;-83
2023/01/06 04:21:25;;;;;;;9.70;6.68;;;10.00;99.90;;;;;;5048982;28;20041;-83
2023/01/06 04:23:51;;;;;;;9.00;6.50;;;10.00;99.90;;;;;;5053932;28;20068;-84
2023/01/06 04:26:16;;;;;;;7.78;5.80;;;10.10;99.90;;;;;;5040241;28;20136;-83
2023/01/06 04:28:42;;;;;;;6.82;5.20;;;10.10;99.90;;;;;;5053221;28;20498;-83
2023/01/06 04:31:10;;;;;;;8.65;5.10;;;10.10;99.90;;;;;;5047107;28;20071;-83
2023/01/06 04:33:36;;;;;;;7.63;4.82;;;10.10;99.90;;;;;;5040107;28;20029;-84
2023/01/06 04:36:02;;;;;;;8.18;4.78;;;10.10;99.90;;;;;;5050656;28;20086;-82
2023/01/06 04:38:27;;;;;;;7.28;4.60;;;10.10;99.90;;;;;;5051654;28;20483;-84
2023/01/06 04:40:53;;;;;;;6.68;4.70;;;10.10;99.90;;;;;;5050804;28;20047;-84
2023/01/06 04:43:18;;;;;;;7.82;4.55;;;10.10;99.90;;;;;;5045712;28;20171;-84
2023/01/06 04:45:44;;;;;;;5.60;4.55;;;10.10;99.90;;;;;;5045279;28;20033;-83
2023/01/06 04:48:10;;;;;;;8.75;4.93;;;10.10;99.90;;;;;;5028651;28;20049;-84
2023/01/06 04:50:36;;;;;;;7.88;4.50;;;10.10;99.90;;;;;;5044297;28;20029;-84
2023/01/06 04:53:03;;;;;;;6.65;4.32;;;10.10;99.90;;;;;;5052659;28;20029;-84
2023/01/06 04:55:29;;;;;;;7.13;4.20;;;10.10;99.90;;;;;;5052138;28;20044;-84
2023/01/06 04:57:54;;;;;;;7.53;4.30;;;10.10;99.90;;;;;;5047927;28;20045;-82
2023/01/06 05:00:20;;;;;;;6.63;3.83;;;10.10;99.90;;;;;;5050163;28;20041;-84
2023/01/06 05:02:46;;;;;;;6.25;3.78;;;10.10;99.90;;;;;;5052171;28;20037;-84
2023/01/06 05:05:12;;;;;;;4.45;3.22;;;10.10;99.90;;;;;;5052374;28;20040;-83
2023/01/06 05:07:38;;;;;;;5.85;3.63;;;10.10;99.90;;;;;;5036165;28;20097;-84
2023/01/06 05:10:04;;;;;;;7.15;3.33;;;10.10;99.90;;;;;;5051488;28;20477;-84
2023/01/06 05:12:31;;;;;;;5.13;3.40;;;10.10;99.90;;;;;;5053068;28;20052;-84
2023/01/06 05:14:57;;;;;;;6.05;3.17;;;10.10;99.90;;;;;;5040275;28;20041;-84
2023/01/06 05:17:22;;;;;;;7.90;3.22;;;10.10;99.90;;;;;;5061609;28;20047;-84
2023/01/06 05:19:48;;;;;;;5.03;3.22;;;10.10;99.90;;;;;;5047094;28;20036;-84
2023/01/06 05:22:13;;;;;;;4.78;3.30;;;10.10;99.90;;;;;;5052159;28;20095;-85
2023/01/06 05:24:39;;;;;;;5.57;3.40;;;10.10;99.90;;;;;;5051417;28;20033;-83
2023/01/06 05:27:05;;;;;;;5.53;3.15;;;10.10;99.90;;;;;;5051517;28;20040;-84
2023/01/06 05:29:30;;;;;;;4.97;3.22;;;10.20;99.90;;;;;;5052051;28;20409;-83
2023/01/06 05:31:57;;;;;;;6.07;4.22;;;10.20;99.90;;;;;;5051752;28;20068;-84
2023/01/06 05:34:22;;;;;;;5.57;3.72;;;10.20;99.90;;;;;;5046909;28;20052;-84
2023/01/06 05:36:48;;;;;;;7.43;4.50;;;10.10;99.90;;;;;;5031647;28;20037;-84
2023/01/06 05:39:13;;;;;;;5.88;4.60;;;10.10;99.90;;;;;;5015172;28;20128;-84
2023/01/06 05:41:39;;;;;;;8.55;4.85;;;10.10;99.90;;;;;;5038409;28;20473;-83
2023/01/06 05:44:04;;;;;;;11.70;6.20;;;10.00;99.90;;;;;;5051841;28;20104;-83
2023/01/06 05:46:30;;;;;;;8.25;5.60;;;10.10;99.90;;;;;;5051046;28;20049;-85
2023/01/06 05:48:57;;;;;;;9.57;6.20;;;10.00;99.90;;;;;;5054635;28;20102;-85
2023/01/06 05:51:26;;;;;;;8.60;6.05;;;10.00;99.90;;;;;;5043082;28;20411;-83
2023/01/06 05:53:51;;;;;;;8.85;6.50;;;10.00;99.90;;;;;;5048967;28;20403;-83
2023/01/06 05:56:20;;;;;;;9.13;7.22;;;9.90;99.90;;;;;;5053078;28;20045;-83
2023/01/06 05:58:48;;;;;;;8.63;7.65;;;9.90;99.90;;;;;;5039892;28;20122;-83
2023/01/06 06:01:26;;;;;;;9.02;7.80;;;9.80;99.90;;;;;;5050003;28;20076;-83
2023/01/06 06:03:53;;;;;;;13.43;7.40;;;9.80;99.90;;;;;;5050452;28;20594;-83
2023/01/06 06:06:21;;;;;;;8.32;7.35;;;9.70;99.90;;;;;;5045508;28;20065;-83
2023/01/06 06:08:46;;;;;;;9.90;7.63;;;9.80;99.90;;;;;;5054261;28;20111;-85
2023/01/06 06:11:14;;;;;;;11.93;7.80;;;9.70;99.90;;;;;;5051133;28;20076;-83
2023/01/06 06:13:51;;;;;;;10.52;7.43;;;9.70;99.90;;;;;;5035994;28;20078;-83
2023/01/06 06:16:18;;;;;;;10.25;7.45;;;9.70;99.90;;;;;;5055383;28;20060;-85
2023/01/06 06:18:48;;;;;;;9.77;7.28;;;9.70;99.90;;;;;;5039580;28;20083;-82
2023/01/06 06:21:16;;;;;;;9.35;7.18;;;9.60;99.90;;;;;;5055650;28;20120;-83
2023/01/06 06:23:42;;;;;;;12.65;7.45;;;9.70;99.90;;;;;;5058077;28;20090;-83
2023/01/06 06:26:08;;;;;;;12.05;7.47;;;9.70;99.90;;;;;;5047657;28;20415;-83
2023/01/06 06:28:35;;;;;;;9.13;7.05;;;9.70;99.90;;;;;;5038565;28;20518;-83
2023/01/06 06:31:13;;;;;;;9.65;6.78;;;9.70;99.90;;;;;;5052504;28;20123;-84
2023/01/06 06:33:39;;;;;;;11.07;6.95;;;9.60;99.90;;;;;;5022462;28;20416;-82
2023/01/06 06:36:10;;;;;;;9.63;6.40;;;9.60;99.90;;;;;;5044629;28;20044;-81
2023/01/06 06:38:37;;;;;;;11.68;7.28;;;9.60;99.90;;;;;;5057994;28;20040;-82
2023/01/06 06:41:03;;;;;;;10.27;6.63;;;9.60;99.90;;;;;;5056604;28;20594;-80
2023/01/06 06:43:29;;;;;;;10.65;7.30;;;9.60;99.90;;;;;;5043318;28;20403;-83
2023/01/06 06:45:54;;;;;;;12.77;6.72;;;9.60;99.90;;;;;;5041221;28;20044;-83
2023/01/06 06:48:20;;;;;;;11.32;6.88;;;9.60;99.90;;;;;;5040187;28;20119;-82
2023/01/06 06:50:45;;;;;;;9.05;7.10;;;9.60;99.90;;;;;;5055931;28;20495;-83
2023/01/06 06:53:11;;;;;;;9.60;7.40;;;9.60;99.90;;;;;;5056323;28;20068;-82
2023/01/06 06:55:37;;;;;;;8.43;6.90;;;9.70;99.90;;;;;;5055642;28;20040;-82
2023/01/06 06:58:02;;;;;;;11.48;7.10;;;9.60;99.90;;;;;;5055444;28;20045;-82
2023/01/06 07:00:28;;;;;;;11.07;7.75;;;9.60;99.90;;;;;;5053787;28;20152;-82
2023/01/06 07:02:53;;;;;;;8.02;7.05;;;9.60;99.90;;;;;;5038810;28;20434;-82
2023/01/06 07:05:19;;;;;;;8.30;6.85;;;9.60;99.90;;;;;;5046901;28;20050;-83
2023/01/06 07:07:44;;;;;;;8.77;6.78;;;9.60;99.90;;;;;;5037995;28;20056;-82
2023/01/06 07:10:13;;;;;;;7.25;6.35;;;9.60;99.90;;;;;;5039883;28;20055;-81
2023/01/06 07:12:42;;;;;;;7.25;5.82;;;9.60;99.90;;;;;;5051970;28;20152;-82
2023/01/06 07:15:09;;;;;;;11.10;5.60;;;9.60;99.90;;;;;;5030042;28;20132;-81
2023/01/06 07:17:35;;;;;;;7.43;4.97;;;9.70;99.90;;;;;;5031863;28;20077;-82
2023/01/06 07:20:00;;;;;;;6.15;4.55;;;9.70;99.90;;;;;;5046624;28;20042;-82
2023/01/06 07:22:26;;;;;;;6.50;4.60;;;9.60;99.90;;;;;;5046085;28;20546;-82
2023/01/06 07:24:51;;;;;;;6.10;4.25;;;9.70;99.90;;;;;;5047877;28;20100;-83
2023/01/06 07:27:17;;;;;;;5.28;3.65;;;9.70;99.90;;;;;;5049680;28;20059;-83
2023/01/06 07:29:42;;;;;;;4.35;3.28;;;9.70;99.90;;;;;;5051896;28;20037;-83
2023/01/06 07:32:08;;;;;;;3.78;3.40;;;9.70;99.90;;;;;;5050691;28;20445;-82
2023/01/06 07:34:34;;;;;;;5.15;3.47;;;9.70;99.90;;;;;;5052699;28;20033;-83
2023/01/06 07:36:59;;;;;;;4.22;3.17;;;9.70;99.90;;;;;;5048688;28;20399;-83
2023/01/06 07:39:25;;;;;;;5.57;3.15;;;9.70;99.90;;;;;;5052387;28;20048;-82
2023/01/06 07:41:50;;;;;;;5.25;2.90;;;9.70;99.90;;;;;;5028650;28;20072;-82
2023/01/06 07:44:16;;;;;;;4.95;2.90;;;9.80;99.90;;;;;;5028226;28;20037;-82
2023/01/06 07:46:41;;;;;;;5.32;2.80;;;9.80;99.90;;;;;;5048286;28;20453;-81
2023/01/06 07:49:07;;;;;;;4.60;2.53;;;9.80;99.90;;;;;;5052362;28;20033;-82
2023/01/06 07:51:32;;;;;;;6.70;2.40;;;9.80;99.90;;;;;;5053903;28;20044;-82
2023/01/06 07:53:58;;;;;;;4.60;2.05;;;9.70;99.90;;;;;;5053171;28;20045;-82
2023/01/06 07:56:23;;;;;;;3.10;1.55;;;9.60;99.90;;;;;;5047143;28;20045;-83
2023/01/06 07:58:49;;;;;;;3.83;2.03;;;9.50;99.90;;;;;;5044802;28;20551;-81
2023/01/06 08:01:15;;;;;;;4.50;1.27;;;9.40;99.90;;;;;;5047060;28;20140;-83
2023/01/06 08:03:41;;;;;;;3.38;1.40;;;9.30;99.90;;;;;;5039785;28;20037;-81
2023/01/06 08:06:10;;;;;;;5.30;1.40;;;9.20;99.90;;;;;;5043207;28;20040;-80
2023/01/06 08:08:40;;;;;;;3.72;1.20;;;9.20;99.90;;;;;;5049051;28;20029;-81
2023/01/06 08:11:07;;;;;;;3.60;1.10;;;9.10;99.90;;;;;;5054681;28;20047;-81
2023/01/06 08:13:33;;;;;;;3.78;1.00;;;9.00;99.90;;;;;;5052538;28;20049;-82
2023/01/06 08:16:03;;;;;;;3.38;0.80;;;8.90;99.90;;;;;;5050362;28;20041;-82
2023/01/06 08:18:29;;;;;;;3.25;0.70;;;8.80;99.90;;;;;;5054478;28;20041;-83
2023/01/06 08:21:00;;;;;;;3.97;0.88;;;8.80;99.90;;;;;;5053260;28;20041;-83
2023/01/06 08:23:26;;;;;;;4.63;0.80;;;8.70;99.90;;;;;;5052280;28;20041;-82
2023/01/06 08:25:51;;;;;;;2.03;0.70;;;8.60;99.90;;;;;;5052444;28;20060;-82
2023/01/06 08:28:17;;;;;;;6.13;1.27;;;8.50;99.90;;;;;;5047977;28;20037;-83
2023/01/06 08:30:43;;;;;;;7.03;0.75;;;8.50;99.90;;;;;;5053143;28;20033;-83
2023/01/06 08:33:08;;;;;;;3.08;0.77;;;8.40;99.90;;;;;;5055190;28;20706;-82
2023/01/06 08:35:34;;;;;;;3.08;0.98;;;8.40;99.90;;;;;;5052081;28;20495;-82
2023/01/06 08:37:59;;;;;;;4.70;1.02;;;8.30;99.90;;;;;;5035080;28;20040;-81
2023/01/06 08:40:25;;;;;;;5.80;1.50;;;8.30;99.90;;;;;;5051731;28;20041;-83
2023/01/06 08:42:50;;;;;;;5.50;1.70;;;8.20;99.90;;;;;;5050906;28;20040;-82
2023/01/06 08:45:16;;;;;;;8.23;3.45;;;8.20;99.90;;;;;;5047485;28;20037;-81
2023/01/06 08:47:41;;;;;;;6.68;1.48;;;8.20;99.90;;;;;;5052476;28;20065;-83
2023/01/06 08:50:07;;;;;;;7.18;1.95;;;8.10;99.90;;;;;;5053005;28;20545;-82
2023/01/06 08:52:33;;;;;;;7.70;2.28;;;8.10;99.90;;;;;;5053466;28;20099;-82
2023/01/06 08:54:58;;;;;;;4.28;1.90;;;8.10;99.90;;;;;;5052753;28;20095;-82
2023/01/06 08:57:24;;;;;;;10.25;1.48;;;8.10;99.90;;;;;;5052572;28;20094;-83
2023/01/06 08:59:50;;;;;;;9.07;2.15;;;8.10;99.90;;;;;;5048102;28;20115;-83
2023/01/06 09:02:15;;;;;;;11.02;2.30;;;8.10;99.90;;;;;;5051344;28;20068;-80
2023/01/06 09:04:41;;;;;;;9.93;2.08;;;8.00;99.90;;;;;;5053534;28;20036;-80
2023/01/06 09:07:06;;;;;;;6.22;1.50;;;8.00;99.90;;;;;;5053535;28;20060;-82
2023/01/06 09:09:32;;;;;;;5.68;1.40;;;8.00;99.90;;;;;;5052674;28;20037;-82
2023/01/06 09:11:58;;;;;;;5.53;1.70;;;8.00;99.90;;;;;;5051669;28;20413;-83
2023/01/06 09:14:23;;;;;;;9.00;1.80;;;8.00;99.90;;;;;;5050257;28;20033;-82
2023/01/06 09:16:49;;;;;;;7.00;1.33;;;8.00;99.90;;;;;;5050839;28;20572;-82
2023/01/06 09:19:15;;;;;;;9.18;1.60;;;8.00;99.90;;;;;;5037655;28;20067;-82
2023/01/06 09:21:41;;;;;;;7.55;1.75;;;8.00;99.90;;;;;;5050482;28;20040;-81
2023/01/06 09:24:12;;;;;;;10.02;1.52;;;8.00;99.90;;;;;;5048710;28;20414;-82
2023/01/06 09:26:38;;;;;;;8.70;1.48;;;8.10;99.90;;;;;;5052381;28;20041;-82
2023/01/06 09:29:03;;;;;;;9.80;1.83;;;8.10;99.90;;;;;;5050412;28;20044;-84
2023/01/06 09:31:29;;;;;;;11.77;1.23;;;8.10;99.90;;;;;;5050275;28;20036;-82
2023/01/06 09:33:54;;;;;;;5.57;1.38;;;8.10;99.90;;;;;;5042303;28;20035;-83
2023/01/06 09:36:21;;;;;;;8.25;1.75;;;8.10;99.90;;;;;;5039627;28;20037;-81
2023/01/06 09:38:46;;;;;;;9.73;1.40;;;8.10;99.90;;;;;;5041001;28;20072;-83
2023/01/06 09:41:28;;;;;;;15.82;1.17;;;8.20;99.90;;;;;;5047289;28;20095;-83
2023/01/06 09:44:11;;;;;;;8.13;1.85;;;8.10;99.90;;;;;;5050131;28;20056;-82
2023/01/06 09:46:40;;;;;;;10.52;2.42;;;8.20;99.90;;;;;;5050058;28;20094;-82
2023/01/06 09:49:32;;;;;;;9.90;2.70;;;8.30;99.90;;;;;;5050531;28;20101;-82
2023/01/06 09:52:22;;;;;;;12.48;2.70;;;8.40;99.90;;;;;;5046155;28;20033;-83
2023/01/06 09:55:04;;;;;;;11.98;1.90;;;8.50;99.90;;;;;;5039008;28;20061;-82
2023/01/06 09:57:40;;;;;;;8.82;1.40;;;8.60;99.90;;;;;;5048156;28;20044;-83
2023/01/06 10:00:50;;;;;;;12.15;1.55;;;8.60;99.90;;;;;;5041269;28;20037;-83
2023/01/06 10:03:18;;;;;;;5.32;1.20;;;8.70;99.90;;;;;;5043518;28;20657;-83
2023/01/06 10:05:57;;;;;;;10.25;1.40;;;8.80;99.90;;;;;;5045787;28;20038;-83
2023/01/06 10:08:35;;;;;;;7.47;1.42;;;8.90;99.90;;;;;;5042866;28;20087;-82
2023/01/06 10:11:14;;;;;;;8.50;1.65;;;9.10;99.90;;;;;;5052668;28;20044;-82
2023/01/06 10:13:55;;;;;;;10.43;1.35;;;9.20;99.90;;;;;;5047336;28;20187;-83
2023/01/06 10:16:55;;;;;;;13.82;1.45;;;9.20;99.90;;;;;;5035370;28;20410;-83
2023/01/06 10:19:40;;;;;;;11.40;1.52;;;9.30;99.90;;;;;;5047509;28;20182;-82
2023/01/06 10:22:25;;;;;;;8.15;1.88;;;9.20;99.90;;;;;;5044866;28;20048;-82
2023/01/06 10:25:11;;;;;;;10.48;1.38;;;9.20;99.90;;;;;;5049935;28;20044;-83
2023/01/06 10:27:40;;;;;;;9.15;1.35;;;9.20;99.90;;;;;;5044947;28;20120;-83
2023/01/06 10:30:29;;;;;;;9.45;1.67;;;9.30;99.90;;;;;;5025903;28;20041;-82
2023/01/06 10:32:56;;;;;;;7.85;1.45;;;9.20;99.90;;;;;;5061598;28;20045;-83
2023/01/06 10:35:24;;;;;;;9.35;2.03;;;9.20;99.90;;;;;;5054514;28;20037;-83
2023/01/06 10:37:52;;;;;;;8.75;2.47;;;9.20;99.90;;;;;;5054621;28;20037;-81
2023/01/06 10:40:25;;;;;;;13.13;2.00;;;9.30;99.90;;;;;;5040127;28;20048;-82
2023/01/06 10:43:05;;;;;;;10.20;2.90;;;9.30;99.90;;;;;;5056459;28;20044;-83
2023/01/06 10:45:46;;;;;;;8.70;1.52;;;9.30;99.90;;;;;;5054493;28;20033;-83
2023/01/06 10:48:15;;;;;;;7.28;1.50;;;9.30;99.90;;;;;;5062693;28;20513;-84
2023/01/06 10:50:41;;;;;;;12.02;1.50;;;9.30;99.90;;;;;;5018807;28;20029;-83
2023/01/06 10:53:10;;;;;;;10.13;1.58;;;9.30;99.90;;;;;;5036248;28;20045;-84
2023/01/06 10:55:53;;;;;;;8.57;1.40;;;9.40;99.90;;;;;;5044349;28;20041;-84
2023/01/06 10:58:46;;;;;;;9.55;1.55;;;9.40;99.90;;;;;;5041153;28;20115;-83
2023/01/06 11:01:17;;;;;;;9.00;1.30;;;9.30;99.90;;;;;;5054095;28;20045;-85
2023/01/06 11:03:43;;;;;;;10.52;1.90;;;9.30;99.90;;;;;;5053117;28;20043;-81
2023/01/06 11:06:14;;;;;;;8.38;1.52;;;9.30;99.90;;;;;;5017612;28;20042;-83
2023/01/06 11:08:40;;;;;;;10.18;2.08;;;9.30;99.90;;;;;;5033868;28;20177;-83
2023/01/06 11:11:14;;;;;;;6.72;1.38;;;9.20;99.90;;;;;;5052236;28;20037;-83
2023/01/06 11:13:45;;;;;;;10.35;1.27;;;9.10;99.90;;;;;;5053920;28;20499;-83
2023/01/06 11:16:19;;;;;;;8.77;1.50;;;9.10;99.90;;;;;;5042342;28;20421;-83
2023/01/06 11:18:51;;;;;;;8.85;1.30;;;9.10;99.90;;;;;;5033112;28;20121;-83
2023/01/06 11:21:17;;;;;;;8.52;1.65;;;9.10;99.90;;;;;;5052737;28;20127;-82
2023/01/06 11:23:45;;;;;;;9.93;1.17;;;9.10;99.90;;;;;;5049143;28;20072;-82
2023/01/06 11:26:11;;;;;;;9.25;1.48;;;9.10;99.90;;;;;;5052514;28;20923;-83
2023/01/06 11:28:38;;;;;;;9.48;1.83;;;9.20;99.90;;;;;;5051823;28;20033;-84
2023/01/06 11:31:03;;;;;;;10.27;1.50;;;9.20;99.90;;;;;;5051029;28;20079;-85
2023/01/06 11:33:31;;;;;;;10.52;1.70;;;9.30;99.90;;;;;;5034672;28;20060;-83
2023/01/06 11:36:03;;;;;;;14.77;1.98;;;9.30;99.90;;;;;;5056438;28;20519;-82
2023/01/06 11:38:29;;;;;;;12.40;3.03;;;9.30;99.90;;;;;;5054599;28;20507;-81
2023/01/06 11:40:55;;;;;;;11.35;3.17;;;9.40;99.90;;;;;;5054113;28;20086;-83
2023/01/06 11:43:30;;;;;;;7.82;1.40;;;9.40;99.90;;;;;;5054616;28;20127;-82
2023/01/06 11:45:59;;;;;;;11.52;2.05;;;9.40;99.90;;;;;;5046014;28;20044;-81
2023/01/06 11:48:33;;;;;;;11.63;1.95;;;9.50;99.90;;;;;;5053644;28;20051;-83
2023/01/06 11:51:03;;;;;;;;;;;9.60;99.90;;;;;;5053887;28;20048;-82
2023/01/06 11:53:29;;;;;;;9.15;1.50;;;9.70;99.90;;;;;;5022801;28;19921;-83
2023/01/06 11:56:04;;;;;;;14.73;2.38;;;9.80;99.90;;;;;;5034234;28;20464;-83
2023/01/06 11:58:54;;;;;;;9.20;2.10;;;9.80;99.90;;;;;;5048042;28;20049;-84
2023/01/06 12:01:28;;;;;;;12.68;2.17;;;9.90;99.90;;;;;;5056159;28;20127;-84
2023/01/06 12:04:18;;;;;;;13.00;1.88;;;9.90;99.90;;;;;;5034036;28;20047;-83
2023/01/06 12:06:45;;;;;;;14.82;3.55;;;9.90;99.90;;;;;;5044658;28;20053;-84
2023/01/06 12:09:18;;;;;;;12.10;2.42;;;10.00;99.90;;;;;;5053575;28;20047;-83
2023/01/06 12:11:48;;;;;;;15.02;2.90;;;10.00;99.90;;;;;;5054459;28;20071;-83
2023/01/06 12:14:17;;;;;;;16.50;4.03;;;10.10;99.90;;;;;;5054042;28;20036;-83
2023/01/06 12:17:05;;;;;;;20.13;4.00;;;10.10;99.90;;;;;;5053394;28;20037;-84
2023/01/06 12:19:42;;;;;;;13.30;2.30;;;10.00;99.90;;;;;;5036690;28;20037;-83
2023/01/06 12:22:37;;;;;;;12.38;2.25;;;10.00;99.90;;;;;;5053677;28;20040;-84
2023/01/06 12:25:04;;;;;;;;;;;10.00;99.90;;;;;;5054732;28;20076;-84
2023/01/06 12:27:36;;;;;;;12.13;2.72;;;10.00;99.90;;;;;;5052410;28;20007;-83
2023/01/06 12:30:07;;;;;;;7.63;1.80;;;9.90;99.90;;;;;;5054448;28;20075;-84
2023/01/06 12:32:39;;;;;;;11.68;2.00;;;9.90;99.90;;;;;;5053818;28;20049;-82
2023/01/06 12:35:09;;;;;;;10.27;2.05;;;9.90;99.90;;;;;;5054097;28;20040;-82
2023/01/06 12:37:41;;;;;;;10.30;2.30;;;9.90;99.90;;;;;;5053103;28;20124;-85
2023/01/06 12:40:13;;;;;;;11.20;1.63;;;9.90;99.90;;;;;;5053685;28;20059;-84
2023/01/06 12:42:57;;;;;;;10.05;2.17;;;9.80;99.90;;;;;;5037261;28;20155;-83
2023/01/06 12:45:32;;;;;;;8.65;1.67;;;9.80;99.90;;;;;;5052272;28;20045;-84
2023/01/06 12:48:02;;;;;;;9.70;1.40;;;9.80;99.90;;;;;;5053496;28;20040;-83
2023/01/06 12:50:42;;;;;;;9.65;1.73;;;9.80;99.90;;;;;;5053042;28;20063;-83
2023/01/06 12:53:24;;;;;;;9.02;1.50;;;9.80;99.90;;;;;;5054026;28;20036;-84
2023/01/06 12:55:58;;;;;;;8.75;1.90;;;9.90;99.90;;;;;;5053253;28;20045;-83
2023/01/06 12:58:49;;;;;;;10.20;1.50;;;9.90;99.90;;;;;;5052640;28;20052;-83
2023/01/06 13:01:30;;;;;;;8.88;1.33;;;10.00;99.90;;;;;;5054180;28;20052;-82
2023/01/06 13:04:23;;;;;;;17.17;2.40;;;10.00;99.90;;;;;;5053928;28;20047;-83
2023/01/06 13:07:35;;;;;;;8.88;1.75;;;9.90;99.90;;;;;;5053048;28;20094;-83
2023/01/06 13:10:03;;;;;;;8.48;1.42;;;9.90;99.90;;;;;;5054812;28;20041;-82
2023/01/06 13:12:46;;;;;;;8.40;1.90;;;9.70;99.90;;;;;;5052748;28;20036;-83